createdAt,value
2019-02-20T00:00:00.362Z,21.19
2019-02-20T00:01:00.144Z,21.13
2019-02-20T00:02:00.074Z,21.11
2019-02-20T00:03:00.067Z,21.02
2019-02-20T00:04:00.065Z,21.08
2019-02-20T00:05:00.093Z,21.16
2019-02-20T00:06:00.084Z,21.09
2019-02-20T00:07:00.025Z,21.09
2019-02-20T00:08:00.011Z,21.08
2019-02-20T00:09:00.523Z,20.96
2019-02-20T00:09:59.989Z,21.09
2019-02-20T00:10:59.981Z,20.96
2019-02-20T00:12:00.007Z,21.05
2019-02-20T00:12:59.949Z,21.06
2019-02-20T00:13:59.948Z,21.08
2019-02-20T00:14:59.925Z,21.01
2019-02-20T00:15:59.827Z,21.08
2019-02-20T00:16:59.965Z,21.05
2019-02-20T00:17:59.894Z,21.02
2019-02-20T00:18:59.891Z,21.09
2019-02-20T00:19:59.876Z,21.08
2019-02-20T00:20:59.872Z,21.04
2019-02-20T00:21:59.850Z,20.96
2019-02-20T00:22:59.896Z,20.98
2019-02-20T00:23:59.827Z,21.01
2019-02-20T00:24:59.814Z,21.06
2019-02-20T00:25:59.811Z,21.01
2019-02-20T00:26:59.795Z,20.98
2019-02-20T00:27:59.790Z,21.05
2019-02-20T00:28:59.804Z,21.05
2019-02-20T00:29:59.760Z,21.02
2019-02-20T00:30:59.763Z,21.04
2019-02-20T00:31:59.747Z,21.04
2019-02-20T00:32:59.793Z,20.99
2019-02-20T00:33:59.614Z,20.99
2019-02-20T00:34:59.712Z,21.01
2019-02-20T00:35:59.698Z,21.05
2019-02-20T00:36:59.691Z,21.01
2019-02-20T00:37:59.677Z,21.01
2019-02-20T00:38:59.709Z,21.02
2019-02-20T00:39:59.657Z,21.04
2019-02-20T00:40:59.633Z,20.98
2019-02-20T00:41:59.625Z,20.99
2019-02-20T00:42:59.617Z,20.96
2019-02-20T00:43:59.606Z,20.96
2019-02-20T00:44:59.656Z,20.98
2019-02-20T00:45:59.594Z,20.96
2019-02-20T00:46:59.588Z,20.96
2019-02-20T00:47:59.568Z,20.91
2019-02-20T00:48:59.478Z,20.95
2019-02-20T00:49:59.574Z,21.01
2019-02-20T00:50:59.591Z,20.96
2019-02-20T00:51:59.539Z,20.93
2019-02-20T00:52:59.513Z,21.01
2019-02-20T00:53:59.527Z,20.98
2019-02-20T00:54:59.497Z,20.99
2019-02-20T00:55:59.489Z,20.96
2019-02-20T00:56:59.869Z,20.95
2019-02-20T00:57:59.455Z,20.98
2019-02-20T00:58:59.445Z,20.95
2019-02-20T00:59:59.332Z,20.95
2019-02-20T01:00:59.326Z,20.99
2019-02-20T01:01:59.405Z,20.98
2019-02-20T01:02:59.417Z,20.96
2019-02-20T01:03:59.390Z,20.90
2019-02-20T01:04:59.423Z,20.99
2019-02-20T01:05:59.362Z,20.95
2019-02-20T01:06:59.353Z,20.86
2019-02-20T01:07:59.346Z,20.91
2019-02-20T01:08:59.386Z,20.93
2019-02-20T01:09:59.364Z,20.93
2019-02-20T01:10:59.302Z,20.93
2019-02-20T01:11:59.291Z,20.90
2019-02-20T01:12:59.190Z,20.91
2019-02-20T01:13:59.280Z,20.91
2019-02-20T01:14:59.256Z,20.90
2019-02-20T01:15:59.295Z,20.91
2019-02-20T01:16:59.265Z,20.86
2019-02-20T01:17:59.219Z,20.95
2019-02-20T01:18:59.214Z,20.86
2019-02-20T01:19:59.212Z,20.86
2019-02-20T01:20:59.201Z,20.89
2019-02-20T01:21:59.231Z,20.86
2019-02-20T01:23:00.049Z,20.90
2019-02-20T01:23:59.180Z,20.86
2019-02-20T01:24:59.160Z,20.96
2019-02-20T01:25:59.188Z,20.89
2019-02-20T01:26:59.129Z,20.89
2019-02-20T01:27:59.116Z,20.89
2019-02-20T01:28:59.109Z,20.89
2019-02-20T01:29:59.110Z,20.89
2019-02-20T01:30:59.004Z,20.87
2019-02-20T01:31:59.119Z,20.90
2019-02-20T01:32:58.965Z,20.86
2019-02-20T01:33:59.061Z,20.89
2019-02-20T01:34:59.051Z,20.86
2019-02-20T01:35:59.038Z,20.90
2019-02-20T01:36:59.062Z,20.91
2019-02-20T01:37:59.012Z,20.87
2019-02-20T01:38:59.009Z,20.93
2019-02-20T01:39:59.000Z,20.95
2019-02-20T01:40:58.990Z,20.86
2019-02-20T01:41:58.966Z,20.84
2019-02-20T01:42:58.987Z,20.87
2019-02-20T01:43:58.952Z,20.84
2019-02-20T01:44:58.935Z,20.89
2019-02-20T01:45:58.916Z,20.90
2019-02-20T01:46:58.820Z,20.93
2019-02-20T01:47:58.828Z,20.80
2019-02-20T01:48:58.880Z,20.84
2019-02-20T01:49:58.876Z,20.87
2019-02-20T01:50:58.869Z,20.86
2019-02-20T01:51:58.862Z,20.83
2019-02-20T01:52:58.898Z,20.91
2019-02-20T01:53:58.829Z,20.83
2019-02-20T01:54:58.823Z,20.83
2019-02-20T01:55:58.810Z,20.87
2019-02-20T01:56:58.708Z,20.87
2019-02-20T01:57:58.786Z,20.86
2019-02-20T01:58:58.730Z,20.84
2019-02-20T01:59:58.770Z,20.89
2019-02-20T02:00:58.754Z,20.81
2019-02-20T02:01:58.745Z,20.83
2019-02-20T02:02:58.740Z,20.84
2019-02-20T02:03:58.728Z,20.87
2019-02-20T02:04:58.764Z,20.84
2019-02-20T02:05:58.707Z,20.86
2019-02-20T02:06:58.693Z,20.84
2019-02-20T02:07:58.685Z,20.86
2019-02-20T02:08:59.707Z,20.84
2019-02-20T02:09:58.662Z,20.89
2019-02-20T02:10:58.691Z,20.83
2019-02-20T02:11:58.632Z,20.84
2019-02-20T02:12:58.619Z,20.83
2019-02-20T02:13:58.617Z,20.84
2019-02-20T02:14:58.610Z,20.74
2019-02-20T02:15:58.500Z,20.76
2019-02-20T02:16:58.618Z,20.80
2019-02-20T02:17:58.566Z,20.77
2019-02-20T02:18:58.570Z,20.84
2019-02-20T02:19:58.546Z,20.79
2019-02-20T02:20:58.548Z,20.80
2019-02-20T02:21:58.527Z,20.77
2019-02-20T02:22:58.556Z,20.80
2019-02-20T02:23:58.515Z,20.77
2019-02-20T02:24:58.500Z,20.76
2019-02-20T02:25:58.471Z,20.77
2019-02-20T02:26:58.471Z,20.76
2019-02-20T02:27:58.476Z,20.76
2019-02-20T02:28:58.463Z,20.79
2019-02-20T02:29:58.464Z,20.79
2019-02-20T02:30:58.424Z,20.77
2019-02-20T02:31:58.424Z,20.74
2019-02-20T02:32:58.407Z,20.74
2019-02-20T02:33:58.394Z,20.84
2019-02-20T02:34:58.448Z,20.83
2019-02-20T02:35:58.367Z,20.76
2019-02-20T02:36:58.421Z,20.74
2019-02-20T02:37:58.354Z,20.84
2019-02-20T02:38:58.358Z,20.76
2019-02-20T02:39:58.323Z,20.83
2019-02-20T02:40:58.379Z,20.77
2019-02-20T02:41:58.305Z,20.69
2019-02-20T02:42:58.295Z,20.77
2019-02-20T02:43:58.271Z,20.72
2019-02-20T02:44:58.271Z,20.72
2019-02-20T02:45:58.261Z,20.74
2019-02-20T02:46:58.270Z,20.74
2019-02-20T02:47:58.242Z,20.74
2019-02-20T02:48:58.231Z,20.74
2019-02-20T02:49:58.221Z,20.74
2019-02-20T02:50:58.244Z,20.77
2019-02-20T02:51:58.186Z,20.76
2019-02-20T02:52:58.178Z,20.80
2019-02-20T02:53:58.162Z,20.80
2019-02-20T02:54:58.152Z,20.74
2019-02-20T02:55:58.144Z,20.77
2019-02-20T02:56:58.082Z,20.74
2019-02-20T02:57:58.136Z,20.76
2019-02-20T02:58:58.121Z,20.71
2019-02-20T02:59:58.105Z,20.71
2019-02-20T03:00:57.996Z,20.76
2019-02-20T03:01:58.115Z,20.72
2019-02-20T03:02:58.067Z,20.76
2019-02-20T03:03:58.054Z,20.76
2019-02-20T03:04:58.047Z,20.74
2019-02-20T03:05:58.045Z,20.72
2019-02-20T03:06:58.083Z,20.74
2019-02-20T03:07:58.031Z,20.79
2019-02-20T03:08:57.987Z,20.69
2019-02-20T03:09:57.992Z,20.68
2019-02-20T03:10:57.990Z,20.68
2019-02-20T03:11:57.969Z,20.64
2019-02-20T03:12:57.900Z,20.65
2019-02-20T03:13:57.950Z,20.69
2019-02-20T03:14:57.934Z,20.66
2019-02-20T03:15:57.926Z,20.69
2019-02-20T03:16:57.922Z,20.68
2019-02-20T03:17:57.961Z,20.69
2019-02-20T03:18:57.916Z,20.68
2019-02-20T03:19:57.895Z,20.62
2019-02-20T03:20:57.875Z,20.65
2019-02-20T03:21:57.865Z,20.72
2019-02-20T03:22:57.852Z,20.71
2019-02-20T03:23:58.453Z,20.66
2019-02-20T03:24:57.850Z,20.59
2019-02-20T03:25:57.722Z,20.66
2019-02-20T03:26:57.813Z,20.68
2019-02-20T03:27:57.792Z,20.65
2019-02-20T03:28:57.832Z,20.65
2019-02-20T03:29:57.764Z,20.65
2019-02-20T03:30:57.657Z,20.64
2019-02-20T03:31:57.743Z,20.62
2019-02-20T03:32:57.745Z,20.59
2019-02-20T03:33:57.731Z,20.66
2019-02-20T03:34:57.753Z,20.58
2019-02-20T03:35:57.706Z,20.65
2019-02-20T03:36:57.699Z,20.68
2019-02-20T03:37:57.676Z,20.69
2019-02-20T03:38:57.680Z,20.65
2019-02-20T03:39:57.664Z,20.62
2019-02-20T03:40:57.694Z,20.62
2019-02-20T03:41:57.643Z,20.69
2019-02-20T03:42:57.624Z,20.65
2019-02-20T03:43:57.615Z,20.58
2019-02-20T03:44:57.637Z,20.54
2019-02-20T03:45:57.599Z,20.69
2019-02-20T03:46:57.631Z,20.61
2019-02-20T03:47:57.584Z,20.65
2019-02-20T03:48:57.561Z,20.68
2019-02-20T03:49:57.547Z,20.64
2019-02-20T03:50:57.541Z,20.62
2019-02-20T03:51:57.519Z,20.64
2019-02-20T03:52:57.455Z,20.64
2019-02-20T03:53:57.504Z,20.65
2019-02-20T03:54:57.496Z,20.68
2019-02-20T03:55:57.486Z,20.61
2019-02-20T03:56:57.385Z,20.59
2019-02-20T03:57:57.513Z,20.68
2019-02-20T03:58:57.445Z,20.58
2019-02-20T03:59:57.474Z,20.62
2019-02-20T04:00:57.426Z,20.76
2019-02-20T04:01:57.433Z,20.66
2019-02-20T04:02:57.407Z,20.61
2019-02-20T04:03:57.424Z,20.54
2019-02-20T04:04:57.386Z,20.72
2019-02-20T04:05:57.390Z,20.68
2019-02-20T04:06:57.361Z,20.65
2019-02-20T04:07:57.347Z,20.64
2019-02-20T04:08:57.378Z,20.66
2019-02-20T04:09:57.325Z,20.58
2019-02-20T04:10:57.225Z,20.61
2019-02-20T04:11:57.316Z,20.66
2019-02-20T04:12:57.296Z,20.65
2019-02-20T04:13:57.296Z,20.50
2019-02-20T04:14:57.224Z,20.64
2019-02-20T04:15:57.257Z,20.71
2019-02-20T04:16:57.249Z,20.71
2019-02-20T04:17:57.236Z,20.72
2019-02-20T04:18:57.225Z,20.62
2019-02-20T04:19:57.231Z,20.58
2019-02-20T04:20:57.235Z,20.62
2019-02-20T04:21:57.189Z,20.68
2019-02-20T04:22:57.185Z,20.66
2019-02-20T04:24:02.286Z,20.65
2019-02-20T04:24:58.157Z,20.65
2019-02-20T04:25:57.107Z,20.56
2019-02-20T04:26:57.137Z,20.64
2019-02-20T04:27:57.151Z,20.62
2019-02-20T04:28:57.118Z,20.64
2019-02-20T04:29:57.114Z,20.61
2019-02-20T04:30:57.103Z,20.56
2019-02-20T04:31:57.132Z,20.65
2019-02-20T04:32:58.486Z,20.66
2019-02-20T04:33:57.080Z,20.58
2019-02-20T04:34:57.062Z,20.64
2019-02-20T04:35:57.038Z,20.59
2019-02-20T04:36:57.051Z,20.62
2019-02-20T04:37:57.061Z,20.50
2019-02-20T04:38:57.027Z,20.61
2019-02-20T04:39:57.008Z,20.62
2019-02-20T04:40:56.997Z,20.64
2019-02-20T04:41:56.979Z,20.62
2019-02-20T04:42:58.506Z,20.51
2019-02-20T04:43:57.002Z,20.61
2019-02-20T04:44:56.988Z,20.49
2019-02-20T04:45:56.924Z,20.58
2019-02-20T04:46:56.916Z,20.50
2019-02-20T04:47:56.961Z,20.58
2019-02-20T04:48:56.906Z,20.62
2019-02-20T04:49:56.786Z,20.59
2019-02-20T04:50:56.875Z,20.56
2019-02-20T04:51:56.860Z,20.61
2019-02-20T04:52:56.859Z,20.53
2019-02-20T04:53:56.891Z,20.61
2019-02-20T04:54:56.867Z,20.54
2019-02-20T04:55:56.822Z,20.49
2019-02-20T04:56:56.809Z,20.58
2019-02-20T04:57:56.821Z,20.62
2019-02-20T04:58:56.800Z,20.50
2019-02-20T04:59:56.842Z,20.51
2019-02-20T05:00:56.770Z,20.54
2019-02-20T05:01:56.761Z,20.54
2019-02-20T05:02:56.784Z,20.49
2019-02-20T05:03:56.739Z,20.51
2019-02-20T05:04:56.729Z,20.56
2019-02-20T05:05:56.759Z,20.51
2019-02-20T05:06:56.722Z,20.61
2019-02-20T05:07:56.683Z,20.54
2019-02-20T05:08:56.681Z,20.59
2019-02-20T05:09:56.670Z,20.53
2019-02-20T05:10:56.670Z,20.54
2019-02-20T05:11:56.695Z,20.49
2019-02-20T05:12:56.643Z,20.49
2019-02-20T05:13:56.632Z,20.51
2019-02-20T05:14:56.511Z,20.58
2019-02-20T05:15:56.602Z,20.58
2019-02-20T05:16:56.591Z,20.54
2019-02-20T05:17:56.606Z,20.53
2019-02-20T05:18:56.460Z,20.53
2019-02-20T05:19:56.464Z,20.51
2019-02-20T05:20:56.445Z,20.56
2019-02-20T05:21:56.539Z,20.54
2019-02-20T05:22:56.476Z,20.56
2019-02-20T05:23:56.528Z,20.58
2019-02-20T05:24:56.406Z,20.54
2019-02-20T05:25:56.380Z,20.54
2019-02-20T05:26:56.390Z,20.54
2019-02-20T05:27:56.481Z,20.56
2019-02-20T05:28:56.419Z,20.54
2019-02-20T05:29:56.452Z,20.61
2019-02-20T05:30:56.340Z,20.54
2019-02-20T05:31:56.425Z,20.51
2019-02-20T05:32:56.319Z,20.54
2019-02-20T05:33:56.407Z,20.53
2019-02-20T05:34:56.439Z,20.56
2019-02-20T05:35:56.381Z,20.53
2019-02-20T05:36:56.373Z,20.53
2019-02-20T05:37:56.393Z,20.56
2019-02-20T05:38:56.368Z,20.58
2019-02-20T05:39:56.359Z,20.54
2019-02-20T05:40:56.372Z,20.56
2019-02-20T05:41:56.337Z,20.50
2019-02-20T05:42:56.314Z,20.61
2019-02-20T05:43:56.293Z,20.54
2019-02-20T05:44:56.276Z,20.49
2019-02-20T05:45:56.282Z,20.46
2019-02-20T05:46:56.291Z,20.49
2019-02-20T05:47:56.254Z,20.51
2019-02-20T05:48:56.241Z,20.54
2019-02-20T05:49:56.230Z,20.51
2019-02-20T05:50:56.113Z,20.49
2019-02-20T05:51:56.242Z,20.53
2019-02-20T05:52:56.196Z,20.43
2019-02-20T05:53:56.179Z,20.51
2019-02-20T05:54:56.179Z,20.49
2019-02-20T05:55:56.159Z,20.54
2019-02-20T05:56:56.173Z,20.53
2019-02-20T05:57:56.165Z,20.50
2019-02-20T05:58:56.036Z,20.50
2019-02-20T05:59:56.113Z,20.50
2019-02-20T06:00:57.078Z,20.50
2019-02-20T06:01:56.097Z,20.46
2019-02-20T06:02:56.001Z,20.47
2019-02-20T06:03:56.062Z,20.50
2019-02-20T06:04:56.018Z,20.50
2019-02-20T06:05:56.065Z,20.47
2019-02-20T06:06:56.041Z,20.46
2019-02-20T06:07:56.063Z,20.51
2019-02-20T06:08:56.017Z,20.51
2019-02-20T06:09:56.005Z,20.47
2019-02-20T06:10:56.001Z,20.43
2019-02-20T06:11:55.992Z,20.46
2019-02-20T06:12:55.986Z,20.46
2019-02-20T06:13:56.008Z,20.43
2019-02-20T06:14:55.950Z,20.46
2019-02-20T06:15:55.950Z,20.50
2019-02-20T06:16:55.933Z,20.46
2019-02-20T06:17:55.918Z,20.47
2019-02-20T06:18:55.919Z,20.50
2019-02-20T06:19:55.941Z,20.47
2019-02-20T06:20:55.889Z,20.43
2019-02-20T06:21:55.880Z,20.49
2019-02-20T06:22:55.779Z,20.47
2019-02-20T06:23:55.848Z,20.43
2019-02-20T06:24:55.892Z,20.46
2019-02-20T06:25:55.891Z,20.47
2019-02-20T06:26:55.818Z,20.49
2019-02-20T06:27:55.812Z,20.46
2019-02-20T06:28:55.797Z,20.46
2019-02-20T06:29:55.806Z,20.46
2019-02-20T06:30:55.785Z,20.47
2019-02-20T06:31:55.809Z,20.46
2019-02-20T06:32:55.765Z,20.47
2019-02-20T06:33:55.742Z,20.51
2019-02-20T06:34:55.731Z,20.47
2019-02-20T06:35:55.726Z,20.43
2019-02-20T06:36:55.712Z,20.50
2019-02-20T06:37:55.726Z,20.46
2019-02-20T06:38:55.701Z,20.46
2019-02-20T06:39:55.685Z,20.49
2019-02-20T06:40:55.677Z,20.47
2019-02-20T06:41:55.667Z,20.49
2019-02-20T06:42:55.693Z,20.49
2019-02-20T06:43:55.640Z,20.47
2019-02-20T06:44:55.525Z,20.47
2019-02-20T06:45:56.903Z,20.42
2019-02-20T06:46:55.488Z,20.47
2019-02-20T06:47:55.488Z,20.49
2019-02-20T06:48:55.519Z,20.50
2019-02-20T06:49:55.465Z,20.49
2019-02-20T06:50:55.456Z,20.50
2019-02-20T06:51:55.476Z,20.49
2019-02-20T06:52:55.462Z,20.46
2019-02-20T06:53:55.531Z,20.51
2019-02-20T06:54:55.562Z,20.49
2019-02-20T06:55:55.521Z,20.50
2019-02-20T06:56:55.406Z,20.54
2019-02-20T06:57:55.389Z,20.49
2019-02-20T06:58:55.412Z,20.53
2019-02-20T06:59:55.367Z,20.56
2019-02-20T07:00:55.343Z,20.54
2019-02-20T07:01:55.433Z,20.49
2019-02-20T07:02:55.338Z,20.49
2019-02-20T07:03:55.310Z,20.51
2019-02-20T07:04:55.343Z,20.53
2019-02-20T07:05:55.285Z,20.49
2019-02-20T07:06:55.281Z,20.56
2019-02-20T07:07:55.374Z,20.58
2019-02-20T07:08:55.260Z,20.46
2019-02-20T07:09:55.288Z,20.53
2019-02-20T07:10:55.231Z,20.59
2019-02-20T07:11:55.218Z,20.54
2019-02-20T07:12:55.213Z,20.53
2019-02-20T07:13:55.211Z,20.53
2019-02-20T07:14:55.206Z,20.56
2019-02-20T07:15:55.222Z,20.50
2019-02-20T07:16:55.168Z,20.53
2019-02-20T07:17:55.158Z,20.54
2019-02-20T07:18:55.256Z,20.47
2019-02-20T07:19:55.232Z,20.51
2019-02-20T07:20:55.172Z,20.53
2019-02-20T07:21:55.119Z,20.54
2019-02-20T07:22:55.098Z,20.54
2019-02-20T07:23:55.196Z,20.64
2019-02-20T07:25:02.812Z,20.59
2019-02-20T07:25:56.215Z,20.69
2019-02-20T07:26:55.080Z,20.65
2019-02-20T07:27:55.394Z,20.53
2019-02-20T07:28:55.035Z,20.68
2019-02-20T07:29:55.123Z,20.65
2019-02-20T07:30:55.034Z,20.62
2019-02-20T07:31:55.038Z,20.65
2019-02-20T07:32:55.003Z,20.58
2019-02-20T07:33:55.085Z,20.65
2019-02-20T07:34:54.965Z,20.62
2019-02-20T07:35:54.964Z,20.59
2019-02-20T07:36:55.013Z,20.65
2019-02-20T07:37:55.207Z,20.65
2019-02-20T07:38:54.924Z,20.71
2019-02-20T07:39:54.923Z,20.72
2019-02-20T07:40:54.907Z,20.74
2019-02-20T07:41:54.889Z,20.68
2019-02-20T07:42:54.905Z,20.65
2019-02-20T07:43:54.990Z,20.65
2019-02-20T07:44:54.870Z,20.71
2019-02-20T07:45:54.844Z,20.69
2019-02-20T07:46:54.891Z,20.77
2019-02-20T07:47:54.877Z,20.76
2019-02-20T07:48:54.830Z,20.72
2019-02-20T07:49:54.796Z,20.69
2019-02-20T07:50:54.791Z,20.74
2019-02-20T07:51:54.795Z,20.80
2019-02-20T07:52:54.769Z,20.72
2019-02-20T07:53:54.789Z,20.71
2019-02-20T07:54:54.754Z,20.74
2019-02-20T07:55:54.742Z,20.80
2019-02-20T07:56:54.738Z,20.83
2019-02-20T07:57:54.778Z,20.77
2019-02-20T07:58:54.763Z,20.72
2019-02-20T07:59:54.713Z,20.76
2019-02-20T08:00:54.693Z,20.74
2019-02-20T08:01:54.745Z,20.76
2019-02-20T08:02:54.784Z,20.77
2019-02-20T08:03:54.788Z,20.76
2019-02-20T08:04:54.746Z,20.77
2019-02-20T08:05:54.745Z,20.72
2019-02-20T08:06:54.726Z,20.69
2019-02-20T08:07:54.719Z,20.68
2019-02-20T08:08:54.738Z,20.71
2019-02-20T08:09:54.690Z,20.80
2019-02-20T08:10:54.576Z,20.76
2019-02-20T08:11:54.582Z,20.72
2019-02-20T08:12:54.669Z,20.69
2019-02-20T08:13:54.683Z,20.62
2019-02-20T08:14:54.635Z,20.76
2019-02-20T08:15:54.629Z,20.74
2019-02-20T08:16:54.614Z,20.69
2019-02-20T08:17:54.618Z,20.68
2019-02-20T08:18:54.590Z,20.65
2019-02-20T08:19:54.611Z,20.65
2019-02-20T08:20:54.570Z,20.66
2019-02-20T08:21:54.555Z,20.65
2019-02-20T08:22:54.459Z,20.71
2019-02-20T08:23:54.551Z,20.72
2019-02-20T08:24:54.553Z,20.76
2019-02-20T08:25:54.519Z,20.76
2019-02-20T08:26:54.508Z,20.74
2019-02-20T08:27:54.496Z,20.71
2019-02-20T08:28:54.477Z,20.72
2019-02-20T08:29:54.521Z,20.71
2019-02-20T08:30:54.481Z,20.72
2019-02-20T08:31:54.465Z,20.76
2019-02-20T08:32:54.442Z,20.80
2019-02-20T08:33:54.431Z,20.79
2019-02-20T08:34:54.418Z,20.76
2019-02-20T08:35:54.356Z,20.76
2019-02-20T08:36:54.302Z,20.79
2019-02-20T08:37:54.306Z,20.68
2019-02-20T08:38:54.365Z,20.76
2019-02-20T08:39:54.381Z,20.81
2019-02-20T08:40:54.354Z,20.72
2019-02-20T08:41:54.388Z,20.71
2019-02-20T08:42:54.334Z,20.69
2019-02-20T08:43:54.322Z,20.71
2019-02-20T08:44:54.313Z,20.72
2019-02-20T08:45:54.295Z,20.72
2019-02-20T08:46:54.307Z,20.79
2019-02-20T08:47:54.332Z,20.74
2019-02-20T08:48:54.273Z,20.84
2019-02-20T08:49:54.510Z,20.81
2019-02-20T08:50:54.253Z,20.81
2019-02-20T08:51:54.224Z,20.77
2019-02-20T08:52:54.242Z,20.69
2019-02-20T08:53:54.271Z,20.71
2019-02-20T08:54:54.217Z,20.80
2019-02-20T08:55:54.178Z,20.80
2019-02-20T08:56:54.169Z,20.72
2019-02-20T08:57:54.183Z,20.77
2019-02-20T08:58:54.152Z,20.72
2019-02-20T08:59:54.196Z,20.80
2019-02-20T09:00:54.159Z,20.76
2019-02-20T09:01:54.119Z,20.79
2019-02-20T09:02:54.113Z,20.80
2019-02-20T09:03:54.090Z,20.79
2019-02-20T09:04:54.842Z,20.80
2019-02-20T09:05:54.082Z,20.76
2019-02-20T09:06:54.061Z,20.79
2019-02-20T09:07:54.060Z,20.72
2019-02-20T09:08:54.045Z,20.76
2019-02-20T09:09:54.037Z,20.76
2019-02-20T09:10:54.071Z,20.76
2019-02-20T09:11:54.017Z,20.76
2019-02-20T09:12:54.014Z,20.76
2019-02-20T09:13:54.029Z,20.74
2019-02-20T09:14:53.993Z,20.74
2019-02-20T09:15:53.992Z,20.76
2019-02-20T09:16:54.060Z,20.76
2019-02-20T09:17:53.951Z,20.76
2019-02-20T09:18:53.977Z,20.72
2019-02-20T09:19:53.931Z,20.74
2019-02-20T09:20:53.906Z,20.81
2019-02-20T09:21:53.913Z,20.76
2019-02-20T09:22:53.927Z,20.87
2019-02-20T09:23:53.880Z,20.74
2019-02-20T09:24:53.869Z,20.74
2019-02-20T09:25:53.863Z,20.80
2019-02-20T09:26:53.857Z,20.74
2019-02-20T09:27:53.849Z,20.76
2019-02-20T09:28:53.856Z,20.76
2019-02-20T09:29:53.808Z,20.76
2019-02-20T09:30:53.800Z,20.79
2019-02-20T09:31:53.807Z,20.76
2019-02-20T09:32:53.781Z,20.79
2019-02-20T09:33:53.804Z,20.79
2019-02-20T09:34:53.781Z,20.72
2019-02-20T09:35:53.762Z,20.81
2019-02-20T09:36:53.733Z,20.86
2019-02-20T09:37:53.722Z,20.76
2019-02-20T09:38:53.762Z,20.87
2019-02-20T09:39:53.696Z,20.84
2019-02-20T09:40:53.691Z,20.86
2019-02-20T09:41:53.685Z,20.89
2019-02-20T09:42:53.679Z,20.91
2019-02-20T09:43:53.669Z,20.95
2019-02-20T09:44:53.676Z,20.87
2019-02-20T09:45:53.645Z,20.93
2019-02-20T09:46:53.640Z,20.91
2019-02-20T09:47:53.627Z,20.93
2019-02-20T09:48:53.611Z,20.96
2019-02-20T09:49:53.626Z,20.98
2019-02-20T09:50:53.596Z,21.01
2019-02-20T09:51:53.589Z,21.02
2019-02-20T09:52:53.578Z,21.01
2019-02-20T09:53:53.564Z,21.13
2019-02-20T09:54:53.587Z,21.11
2019-02-20T09:55:53.531Z,21.08
2019-02-20T09:56:53.535Z,21.06
2019-02-20T09:57:53.514Z,21.09
2019-02-20T09:58:53.511Z,21.13
2019-02-20T09:59:53.494Z,21.20
2019-02-20T10:00:53.528Z,21.29
2019-02-20T10:01:53.473Z,21.29
2019-02-20T10:02:53.445Z,21.38
2019-02-20T10:03:53.451Z,21.34
2019-02-20T10:04:53.438Z,21.38
2019-02-20T10:05:53.410Z,21.50
2019-02-20T10:06:53.455Z,21.36
2019-02-20T10:07:53.513Z,21.42
2019-02-20T10:08:53.384Z,21.44
2019-02-20T10:09:53.387Z,21.41
2019-02-20T10:10:53.371Z,21.44
2019-02-20T10:11:53.362Z,21.48
2019-02-20T10:12:53.402Z,21.45
2019-02-20T10:13:53.330Z,21.48
2019-02-20T10:14:53.319Z,21.48
2019-02-20T10:15:53.318Z,21.45
2019-02-20T10:16:54.061Z,21.46
2019-02-20T10:17:53.296Z,21.48
2019-02-20T10:18:53.339Z,21.48
2019-02-20T10:19:53.295Z,21.50
2019-02-20T10:20:53.254Z,21.50
2019-02-20T10:21:53.234Z,21.56
2019-02-20T10:22:53.238Z,21.54
2019-02-20T10:23:53.223Z,21.57
2019-02-20T10:24:53.252Z,21.54
2019-02-20T10:26:00.556Z,21.60
2019-02-20T10:27:00.372Z,21.53
2019-02-20T10:27:54.167Z,21.57
2019-02-20T10:28:54.100Z,21.53
2019-02-20T10:29:53.179Z,21.59
2019-02-20T10:30:53.192Z,21.56
2019-02-20T10:31:53.128Z,21.51
2019-02-20T10:32:53.121Z,21.53
2019-02-20T10:33:53.107Z,21.59
2019-02-20T10:34:53.097Z,21.59
2019-02-20T10:35:53.085Z,21.56
2019-02-20T10:36:53.119Z,21.56
2019-02-20T10:37:53.113Z,21.59
2019-02-20T10:38:53.076Z,21.53
2019-02-20T10:39:53.046Z,21.60
2019-02-20T10:40:53.042Z,21.71
2019-02-20T10:41:53.043Z,21.57
2019-02-20T10:42:53.063Z,21.67
2019-02-20T10:43:53.010Z,21.75
2019-02-20T10:44:52.990Z,21.79
2019-02-20T10:45:52.990Z,21.72
2019-02-20T10:46:52.998Z,21.81
2019-02-20T10:47:53.003Z,21.88
2019-02-20T10:48:52.939Z,21.95
2019-02-20T10:49:52.989Z,22.01
2019-02-20T10:50:52.917Z,22.16
2019-02-20T10:51:52.920Z,22.22
2019-02-20T10:52:52.911Z,22.23
2019-02-20T10:53:52.919Z,22.32
2019-02-20T10:54:57.766Z,22.32
2019-02-20T10:55:53.868Z,22.38
2019-02-20T10:56:52.845Z,22.39
2019-02-20T10:57:52.855Z,22.54
2019-02-20T10:58:52.887Z,22.67
2019-02-20T10:59:52.820Z,22.72
2019-02-20T11:00:52.828Z,22.74
2019-02-20T11:01:52.818Z,22.78
2019-02-20T11:02:52.789Z,22.78
2019-02-20T11:03:52.820Z,22.83
2019-02-20T11:04:52.797Z,22.94
2019-02-20T11:05:52.754Z,22.96
2019-02-20T11:06:52.785Z,23.04
2019-02-20T11:07:52.744Z,23.08
2019-02-20T11:08:52.724Z,23.19
2019-02-20T11:09:52.758Z,23.34
2019-02-20T11:10:52.713Z,23.42
2019-02-20T11:11:54.456Z,23.60
2019-02-20T11:12:52.679Z,23.62
2019-02-20T11:13:52.726Z,23.77
2019-02-20T11:14:52.673Z,23.92
2019-02-20T11:15:52.664Z,24.02
2019-02-20T11:16:52.642Z,24.07
2019-02-20T11:17:52.673Z,24.17
2019-02-20T11:18:52.606Z,24.31
2019-02-20T11:19:52.652Z,24.39
2019-02-20T11:20:52.583Z,24.56
2019-02-20T11:21:52.584Z,24.77
2019-02-20T11:22:52.558Z,24.77
2019-02-20T11:23:52.559Z,24.92
2019-02-20T11:24:53.831Z,25.02
2019-02-20T11:25:53.635Z,25.13
2019-02-20T11:26:55.171Z,25.17
2019-02-20T11:27:52.511Z,25.31
2019-02-20T11:28:52.506Z,25.34
2019-02-20T11:29:52.523Z,25.50
2019-02-20T11:30:52.479Z,25.61
2019-02-20T11:31:52.486Z,25.67
2019-02-20T11:32:52.454Z,25.79
2019-02-20T11:33:52.435Z,25.84
2019-02-20T11:34:52.465Z,26.04
2019-02-20T11:35:52.455Z,26.18
2019-02-20T11:36:52.434Z,26.28
2019-02-20T11:37:52.414Z,26.40
2019-02-20T11:38:52.397Z,26.61
2019-02-20T11:39:53.999Z,26.54
2019-02-20T11:40:52.414Z,26.62
2019-02-20T11:41:52.388Z,26.77
2019-02-20T11:42:52.344Z,26.76
2019-02-20T11:43:52.333Z,26.76
2019-02-20T11:44:52.336Z,26.65
2019-02-20T11:45:52.358Z,26.62
2019-02-20T11:46:52.313Z,26.42
2019-02-20T11:47:52.309Z,26.29
2019-02-20T11:48:52.299Z,26.29
2019-02-20T11:49:52.271Z,26.36
2019-02-20T11:50:52.255Z,26.54
2019-02-20T11:51:52.293Z,26.67
2019-02-20T11:52:52.245Z,26.81
2019-02-20T11:53:52.251Z,26.92
2019-02-20T11:54:52.229Z,26.95
2019-02-20T11:55:52.242Z,26.99
2019-02-20T11:56:52.264Z,27.14
2019-02-20T11:58:00.346Z,27.21
2019-02-20T11:58:53.197Z,27.20
2019-02-20T11:59:52.158Z,27.24
2019-02-20T12:00:52.149Z,27.16
2019-02-20T12:01:52.136Z,27.05
2019-02-20T12:02:52.177Z,26.98
2019-02-20T12:03:52.113Z,26.76
2019-02-20T12:04:52.109Z,26.55
2019-02-20T12:05:52.127Z,26.42
2019-02-20T12:06:52.107Z,26.35
2019-02-20T12:07:52.075Z,26.25
2019-02-20T12:08:52.113Z,26.21
2019-02-20T12:09:52.093Z,26.04
2019-02-20T12:10:52.046Z,25.86
2019-02-20T12:11:52.027Z,25.75
2019-02-20T12:12:52.014Z,25.61
2019-02-20T12:13:52.006Z,25.46
2019-02-20T12:14:52.042Z,25.30
2019-02-20T12:15:52.000Z,25.28
2019-02-20T12:16:51.977Z,25.28
2019-02-20T12:17:51.969Z,25.28
2019-02-20T12:18:51.945Z,25.10
2019-02-20T12:19:51.944Z,24.87
2019-02-20T12:20:51.969Z,24.83
2019-02-20T12:21:51.927Z,24.76
2019-02-20T12:22:51.909Z,24.63
2019-02-20T12:23:51.907Z,24.63
2019-02-20T12:24:51.901Z,24.71
2019-02-20T12:25:51.883Z,24.57
2019-02-20T12:26:51.921Z,24.52
2019-02-20T12:27:51.863Z,24.42
2019-02-20T12:28:51.844Z,24.42
2019-02-20T12:29:51.858Z,24.24
2019-02-20T12:30:51.819Z,24.20
2019-02-20T12:31:52.665Z,24.12
2019-02-20T12:32:51.850Z,24.13
2019-02-20T12:33:52.346Z,24.05
2019-02-20T12:34:51.773Z,23.92
2019-02-20T12:35:51.780Z,23.86
2019-02-20T12:36:51.751Z,23.85
2019-02-20T12:37:51.753Z,23.86
2019-02-20T12:38:51.780Z,23.80
2019-02-20T12:39:51.722Z,23.83
2019-02-20T12:40:51.713Z,23.77
2019-02-20T12:41:51.713Z,23.76
2019-02-20T12:42:51.753Z,23.77
2019-02-20T12:43:51.689Z,23.80
2019-02-20T12:44:51.676Z,23.79
2019-02-20T12:45:51.665Z,23.86
2019-02-20T12:46:51.647Z,23.82
2019-02-20T12:47:51.643Z,23.86
2019-02-20T12:48:51.677Z,23.83
2019-02-20T12:49:51.631Z,23.80
2019-02-20T12:50:51.600Z,23.85
2019-02-20T12:51:51.628Z,24.19